Saint-Jean-De-Matha, Canada
Current Conditions -  °F | °C
As of 4:00 PM on Tuesday 21 Oct 2014 (Local Time) from CYRQ Reporting Station
Overcast Overcast  
Wind Chill: 42°   Ceiling: 6000
Heat Index: 46°   Visibility: 9mi
Dew Point: 36°   Wind: 9mph
Humidity: 66%   Direction: 40°NE
Pressure: 30.11"   Gusts: NA
Location:  46.22°N, 73.53°W
Report Text: CYRQ 212000Z AUTO 04008KT 9SM OVC060 08/02 A3011 RMK SLP199
Loading
Personal Weather Stations






























Interactive Weather Map
Tropical Storm Tracking
New forecast layout! Learn more

10-Day Weather Forecast

Advertisements
Track Severe Weather on mobile